Time;durP1;ratioP1;P1;durP2;ratioP2;P2;SDS_P1;SDS_P2;PMS_P1;PMS_P2;Temp;Humidity;BMP_temperature;BMP_pressure;BME280_temperature;BME280_humidity;BME280_pressure;Samples;Min_cycle;Max_cycle;Signal;HPM_P1;HPM_P2
2021/03/15 00:02:13;;;;;;;9.10;6.32;;;;;;;1.96;91.39;95019.63;5009080;28;20479;-62
2021/03/15 00:04:39;;;;;;;11.57;10.32;;;;;;;2.36;90.33;95026.97;5009256;28;20034;-63
2021/03/15 00:07:05;;;;;;;11.55;10.00;;;;;;;2.37;89.73;95025.13;5010978;28;20026;-63
2021/03/15 00:09:30;;;;;;;12.48;11.05;;;;;;;2.60;89.68;95020.22;5009190;28;20029;-61
2021/03/15 00:11:55;;;;;;;11.35;10.25;;;;;;;2.33;89.62;95002.00;5008821;28;20116;-62
2021/03/15 00:14:22;;;;;;;13.05;10.40;;;;;;;2.34;89.20;95000.94;5007817;28;20122;-63
2021/03/15 00:16:48;;;;;;;10.85;9.15;;;;;;;2.41;89.30;95016.50;5008824;28;20077;-62
2021/03/15 00:19:14;;;;;;;11.55;9.45;;;;;;;2.54;88.78;95029.13;5010975;28;20022;-63
2021/03/15 00:21:39;;;;;;;10.50;9.50;;;;;;;2.41;89.20;95003.38;5008784;28;20026;-62
2021/03/15 00:24:05;;;;;;;10.38;9.02;;;;;;;2.50;89.18;95030.69;5008929;28;20411;-63
2021/03/15 00:26:31;;;;;;;9.15;8.20;;;;;;;2.11;90.14;95005.84;5008930;28;20043;-62
2021/03/15 00:28:56;;;;;;;8.07;7.28;;;;;;;1.95;92.00;95018.06;5008684;28;20048;-63
2021/03/15 00:31:21;;;;;;;10.13;9.00;;;;;;;1.82;92.42;95000.91;5009339;28;20033;-61
2021/03/15 00:33:47;;;;;;;10.45;9.40;;;;;;;1.96;92.86;95024.88;4989040;28;20042;-63
2021/03/15 00:36:12;;;;;;;12.68;10.60;;;;;;;2.02;92.49;95029.91;4989239;28;20042;-63
2021/03/15 00:38:38;;;;;;;15.95;10.80;;;;;;;2.18;91.23;95009.00;4999077;28;20030;-62
2021/03/15 00:41:03;;;;;;;14.20;11.35;;;;;;;2.34;90.51;95002.78;5003771;28;20412;-62
2021/03/15 00:43:28;;;;;;;16.05;10.70;;;;;;;1.92;91.58;94989.69;4989026;28;20037;-62
2021/03/15 00:45:54;;;;;;;12.75;11.38;;;;;;;2.07;91.47;94993.22;4991039;28;20113;-63
2021/03/15 00:48:19;;;;;;;10.30;9.18;;;;;;;1.94;92.53;95019.09;4988997;28;20086;-62
2021/03/15 00:50:44;;;;;;;14.63;12.27;;;;;;;2.16;92.05;95009.28;4989183;28;20047;-62
2021/03/15 00:53:10;;;;;;;13.13;10.93;;;;;;;2.04;92.11;95022.56;4988932;28;20477;-62
2021/03/15 00:55:36;;;;;;;7.10;6.18;;;;;;;1.54;93.39;94984.47;4989238;28;20727;-62
2021/03/15 00:58:04;;;;;;;8.20;7.40;;;;;;;1.80;93.30;95021.38;4990919;28;20022;-62
2021/03/15 01:00:35;;;;;;;13.68;9.25;;;;;;;1.78;92.93;95013.72;4989166;28;20052;-63
2021/03/15 01:03:01;;;;;;;7.18;6.50;;;;;;;1.74;93.79;95009.22;4988854;28;20042;-62
2021/03/15 01:05:36;;;;;;;8.00;7.20;;;;;;;1.80;93.38;95005.63;5018649;23;20395;-71
2021/03/15 01:08:04;;;;;;;8.65;7.50;;;;;;;1.39;93.57;94955.53;5013835;28;20033;-71
2021/03/15 01:10:33;;;;;;;5.70;5.20;;;;;;;1.48;94.21;94989.91;5008049;28;20109;-71
2021/03/15 01:12:58;;;;;;;10.05;7.15;;;;;;;1.80;93.63;95009.03;4991168;28;20054;-71
2021/03/15 01:15:24;;;;;;;10.73;9.60;;;;;;;1.81;92.81;94999.34;4989346;28;20065;-71
2021/03/15 01:17:49;;;;;;;11.20;9.00;;;;;;;1.77;93.04;95006.91;5000652;28;20041;-71
2021/03/15 01:20:15;;;;;;;6.22;5.20;;;;;;;1.64;93.60;95006.53;5008555;28;20101;-71
2021/03/15 01:22:41;;;;;;;10.00;7.55;;;;;;;1.81;93.54;95009.81;5008567;28;20080;-71
2021/03/15 01:25:07;;;;;;;11.18;8.80;;;;;;;1.90;92.78;95015.41;5009298;28;20613;-71
2021/03/15 01:27:33;;;;;;;9.70;8.20;;;;;;;1.75;93.22;94995.88;5008570;28;20061;-71
2021/03/15 01:29:58;;;;;;;10.68;8.27;;;;;;;1.98;91.92;95002.59;5008764;28;20042;-71
2021/03/15 01:32:24;;;;;;;8.18;7.35;;;;;;;1.66;93.08;94986.13;5008671;28;20042;-71
2021/03/15 01:34:49;;;;;;;12.25;8.93;;;;;;;1.86;93.34;94999.38;5005636;28;20061;-71
2021/03/15 01:37:15;;;;;;;11.35;8.73;;;;;;;1.98;92.22;95013.09;4991069;28;20033;-73
2021/03/15 01:39:40;;;;;;;12.02;10.15;;;;;;;2.10;91.90;94991.94;5007453;28;20033;-74
2021/03/15 01:42:07;;;;;;;13.13;9.30;;;;;;;2.18;91.05;94998.50;5008613;28;20446;-70
2021/03/15 01:44:33;;;;;;;11.70;9.55;;;;;;;2.33;90.23;95001.22;5007857;28;20038;-74
2021/03/15 01:46:59;;;;;;;10.25;9.10;;;;;;;1.89;92.03;94993.59;5012229;28;20050;-73
2021/03/15 01:49:24;;;;;;;10.45;9.38;;;;;;;2.14;90.79;94985.09;5012353;28;20563;-64
2021/03/15 01:51:50;;;;;;;11.20;10.15;;;;;;;2.39;89.64;94987.06;5014016;28;20089;-73
2021/03/15 01:54:18;;;;;;;12.95;9.63;;;;;;;2.55;89.55;94982.66;5011057;28;20042;-70
2021/03/15 01:56:43;;;;;;;10.00;9.07;;;;;;;2.44;88.63;94968.72;5011977;28;20407;-70
2021/03/15 01:59:09;;;;;;;14.30;10.43;;;;;;;2.57;87.92;94970.88;5027069;28;20042;-73
2021/03/15 02:01:35;;;;;;;9.60;8.68;;;;;;;2.21;89.72;94977.03;5011745;28;20025;-73
2021/03/15 02:04:00;;;;;;;11.13;8.55;;;;;;;2.02;90.63;94960.91;5029200;28;20022;-73
2021/03/15 02:06:26;;;;;;;13.35;9.60;;;;;;;2.31;89.04;94942.94;5011532;28;20053;-70
2021/03/15 02:08:51;;;;;;;11.23;8.90;;;;;;;2.33;89.17;94967.09;5011396;28;20041;-70
2021/03/15 02:11:37;;;;;;;12.55;10.05;;;;;;;2.64;87.54;94964.59;5011538;28;20155;-70
2021/03/15 02:14:17;;;;;;;10.23;9.23;;;;;;;2.48;88.37;94959.28;5011718;28;20026;-70
2021/03/15 02:16:42;;;;;;;12.10;10.02;;;;;;;2.29;89.64;94966.03;5010149;28;20559;-70
2021/03/15 02:19:26;;;;;;;13.23;10.40;;;;;;;2.06;90.55;94959.34;5013513;28;20022;-70
2021/03/15 02:22:30;;;;;;;12.40;10.18;;;;;;;2.25;89.50;94962.31;5026971;28;20042;-71
2021/03/15 02:25:21;;;;;;;12.25;10.93;;;;;;;2.13;89.65;94962.53;5010266;28;20038;-71
2021/03/15 02:28:02;;;;;;;15.77;9.45;;;;;;;1.90;90.34;94966.34;5006824;28;20038;-73
2021/03/15 02:30:46;;;;;;;18.80;9.68;;;;;;;1.81;91.37;94968.66;5008370;28;20579;-71
2021/03/15 02:33:40;;;;;;;11.88;9.98;;;;;;;1.73;91.14;94963.88;5011017;28;20133;-71
2021/03/15 02:36:07;;;;;;;11.23;8.68;;;;;;;1.64;91.16;94956.72;5010037;28;20045;-71
2021/03/15 02:38:36;;;;;;;12.50;9.13;;;;;;;1.73;91.10;94965.72;5009524;28;20038;-71
2021/03/15 02:41:03;;;;;;;12.20;10.65;;;;;;;1.72;91.40;94951.03;5011285;28;20026;-72
2021/03/15 02:43:31;;;;;;;10.95;9.13;;;;;;;1.77;91.47;94969.41;5010865;28;20495;-71
2021/03/15 02:46:07;;;;;;;10.73;9.52;;;;;;;2.14;90.07;94960.69;5011875;28;20111;-71
2021/03/15 02:48:35;;;;;;;10.75;8.93;;;;;;;2.16;88.90;94951.53;5010712;28;20046;-71
2021/03/15 02:51:03;;;;;;;8.25;7.32;;;;;;;1.78;90.49;94960.50;5010883;28;20099;-71
2021/03/15 02:53:29;;;;;;;9.77;8.88;;;;;;;2.30;89.43;94957.09;5009446;28;20034;-71
2021/03/15 02:56:01;;;;;;;8.82;7.93;;;;;;;2.37;87.58;94954.25;5010901;28;20029;-71
2021/03/15 02:58:28;;;;;;;9.05;7.65;;;;;;;2.30;87.75;94950.03;5025409;28;20034;-71
2021/03/15 03:00:57;;;;;;;7.72;6.93;;;;;;;2.09;89.08;94962.25;5012578;28;20423;-71
2021/03/15 03:03:23;;;;;;;10.95;7.50;;;;;;;1.97;88.55;94951.16;5010208;28;20038;-71
2021/03/15 03:05:51;;;;;;;11.13;8.23;;;;;;;2.41;87.14;94957.97;5010447;28;20121;-71
2021/03/15 03:08:18;;;;;;;7.57;6.82;;;;;;;2.19;88.36;94961.50;5009057;28;20084;-71
2021/03/15 03:10:44;;;;;;;8.23;6.65;;;;;;;2.22;88.19;94952.34;5010590;28;20029;-71
2021/03/15 03:13:11;;;;;;;8.18;6.85;;;;;;;2.42;87.23;94952.44;5027332;28;20458;-69
2021/03/15 03:15:37;;;;;;;10.55;6.60;;;;;;;2.14;88.21;94942.34;5009149;28;20042;-70
2021/03/15 03:18:03;;;;;;;6.68;6.07;;;;;;;2.20;87.93;94946.56;5025219;28;20495;-71
2021/03/15 03:20:29;;;;;;;8.13;6.03;;;;;;;2.37;86.89;94941.13;5010481;28;20030;-71
2021/03/15 03:22:59;;;;;;;6.07;5.47;;;;;;;2.34;86.60;94924.84;5010202;28;20492;-71
2021/03/15 03:25:26;;;;;;;7.43;6.32;;;;;;;2.67;86.08;94945.69;5010502;28;20034;-65
2021/03/15 03:27:55;;;;;;;7.65;6.13;;;;;;;2.54;85.75;94936.47;5010771;28;20042;-71
2021/03/15 03:30:22;;;;;;;7.32;6.30;;;;;;;2.69;85.15;94933.88;5010451;28;20069;-71
2021/03/15 03:32:49;;;;;;;6.78;4.53;;;;;;;2.23;86.62;94925.06;5010081;28;20049;-70
2021/03/15 03:35:14;;;;;;;8.85;5.53;;;;;;;2.42;85.65;94915.69;5010196;28;20520;-74
2021/03/15 03:37:40;;;;;;;6.90;5.57;;;;;;;2.25;86.88;94922.97;5008942;28;20022;-71
2021/03/15 03:40:06;;;;;;;6.72;5.78;;;;;;;2.41;87.14;94924.63;5027051;28;20041;-70
2021/03/15 03:42:32;;;;;;;5.15;4.65;;;;;;;2.35;86.34;94925.63;5010244;28;20030;-72
2021/03/15 03:44:57;;;;;;;7.03;4.85;;;;;;;2.53;86.74;94930.41;5009979;28;20406;-71
2021/03/15 03:47:23;;;;;;;6.97;6.07;;;;;;;2.82;85.07;94930.78;5009826;28;20177;-71
2021/03/15 03:49:49;;;;;;;7.35;5.80;;;;;;;2.88;85.35;94923.69;5009814;28;20045;-70
2021/03/15 03:52:19;;;;;;;7.00;6.30;;;;;;;2.85;85.38;94926.81;5011569;28;20030;-71
2021/03/15 03:55:00;;;;;;;7.40;6.07;;;;;;;3.12;84.69;94929.22;5008700;28;20522;-70
2021/03/15 03:57:31;;;;;;;7.47;6.45;;;;;;;2.81;84.52;94907.38;5009571;28;20034;-71
2021/03/15 04:00:01;;;;;;;7.10;5.28;;;;;;;2.87;85.30;94924.75;5009815;28;20061;-70
2021/03/15 04:02:27;;;;;;;7.82;5.85;;;;;;;2.69;85.69;94931.25;5009534;28;20411;-71
2021/03/15 04:05:07;;;;;;;8.13;6.03;;;;;;;2.82;85.71;94928.13;5009508;28;20459;-71
2021/03/15 04:07:34;;;;;;;10.48;5.70;;;;;;;2.72;85.32;94906.31;5009411;28;20082;-71
2021/03/15 04:10:09;;;;;;;7.45;6.40;;;;;;;2.63;86.16;94919.16;5010887;28;20494;-70
2021/03/15 04:12:40;;;;;;;7.13;6.10;;;;;;;2.91;85.93;94911.84;5009669;28;20045;-71
2021/03/15 04:15:07;;;;;;;7.07;5.47;;;;;;;2.55;85.98;94909.16;5009528;28;20088;-70
2021/03/15 04:17:36;;;;;;;6.28;5.47;;;;;;;2.58;86.72;94927.03;5009083;28;20042;-70
2021/03/15 04:20:08;;;;;;;8.88;6.53;;;;;;;2.54;86.11;94881.31;5008030;28;20124;-70
2021/03/15 04:22:45;;;;;;;7.77;5.50;;;;;;;2.34;86.56;94903.06;5008985;28;20476;-70
2021/03/15 04:25:11;;;;;;;6.75;6.05;;;;;;;2.67;86.14;94919.44;5026127;28;20368;-70
2021/03/15 04:27:40;;;;;;;6.15;5.45;;;;;;;2.63;85.29;94916.53;4990929;28;20092;-70
2021/03/15 04:30:07;;;;;;;8.60;5.82;;;;;;;2.59;85.49;94905.75;5003129;28;20484;-71
2021/03/15 04:32:33;;;;;;;8.15;5.53;;;;;;;2.66;85.37;94905.50;5008950;28;20045;-71
2021/03/15 04:34:59;;;;;;;7.07;6.00;;;;;;;2.55;85.87;94909.94;5003026;28;20113;-70
2021/03/15 04:37:25;;;;;;;6.60;5.95;;;;;;;2.79;85.64;94886.63;4991184;28;20177;-63
2021/03/15 04:39:51;;;;;;;7.80;6.05;;;;;;;2.89;84.20;94885.84;5009660;28;20050;-71
2021/03/15 04:42:17;;;;;;;9.00;6.28;;;;;;;2.48;85.35;94906.78;5008675;28;20114;-71
2021/03/15 04:44:43;;;;;;;8.73;6.53;;;;;;;2.72;85.44;94877.44;4996775;28;20053;-70
2021/03/15 04:47:09;;;;;;;6.72;5.93;;;;;;;2.53;85.83;94906.78;4995023;28;20037;-71
2021/03/15 04:49:37;;;;;;;9.77;5.68;;;;;;;2.43;85.08;94903.34;5008806;28;20029;-70
2021/03/15 04:52:03;;;;;;;6.90;6.30;;;;;;;2.51;84.79;94885.28;5010650;28;20033;-71
2021/03/15 04:54:28;;;;;;;7.68;5.93;;;;;;;2.72;83.83;94880.06;5008861;28;20034;-70
2021/03/15 04:56:56;;;;;;;8.25;6.28;;;;;;;2.81;83.36;94881.88;5008575;28;20172;-71
2021/03/15 04:59:23;;;;;;;8.00;7.20;;;;;;;2.64;83.85;94877.94;5008877;28;20053;-70
2021/03/15 05:01:49;;;;;;;7.53;6.82;;;;;;;2.24;85.29;94885.44;5005432;28;20044;-71
2021/03/15 05:04:16;;;;;;;10.57;6.97;;;;;;;2.48;84.78;94885.00;4990740;28;20499;-71
2021/03/15 05:06:43;;;;;;;6.95;6.25;;;;;;;2.09;86.05;94888.00;5007452;28;20046;-70
2021/03/15 05:09:12;;;;;;;8.05;7.10;;;;;;;2.15;86.04;94878.31;4994573;28;20515;-71
2021/03/15 05:11:38;;;;;;;8.35;7.53;;;;;;;2.45;85.14;94882.88;4999148;28;20057;-71
2021/03/15 05:14:05;;;;;;;8.80;7.57;;;;;;;2.27;85.42;94869.19;5008727;28;20048;-71
2021/03/15 05:16:35;;;;;;;7.85;7.15;;;;;;;2.51;84.32;94855.59;5008489;28;20116;-71
2021/03/15 05:19:03;;;;;;;9.20;7.38;;;;;;;2.70;84.08;94882.13;5010498;28;20036;-71
2021/03/15 05:21:29;;;;;;;9.18;7.80;;;;;;;2.33;84.34;94868.16;5011450;28;20125;-71
2021/03/15 05:23:55;;;;;;;9.68;7.65;;;;;;;2.50;84.23;94867.91;5012485;28;20038;-71
2021/03/15 05:26:23;;;;;;;9.02;8.07;;;;;;;2.60;84.12;94862.69;5012395;28;20499;-71
2021/03/15 05:28:48;;;;;;;11.32;8.20;;;;;;;2.65;84.37;94866.38;5012462;28;20041;-72
2021/03/15 05:31:17;;;;;;;11.55;7.95;;;;;;;2.46;84.08;94866.88;5014030;28;20491;-70
2021/03/15 05:33:45;;;;;;;10.23;7.20;;;;;;;2.46;84.52;94860.84;5012290;28;20100;-72
2021/03/15 05:36:11;;;;;;;7.97;7.25;;;;;;;2.60;84.36;94857.44;5012249;28;20099;-71
2021/03/15 05:38:40;;;;;;;7.60;6.80;;;;;;;2.58;84.41;94859.53;5011722;28;20133;-71
2021/03/15 05:41:12;;;;;;;7.80;7.10;;;;;;;2.68;84.15;94850.91;5010767;28;20040;-71
2021/03/15 05:43:40;;;;;;;12.77;7.75;;;;;;;2.83;83.33;94861.41;5012046;28;20142;-69
2021/03/15 05:46:26;;;;;;;8.68;7.18;;;;;;;2.78;83.28;94844.88;5013724;28;20026;-70
2021/03/15 05:49:30;;;;;;;12.30;6.65;;;;;;;2.59;83.43;94855.06;5010908;28;20045;-73
2021/03/15 05:52:04;;;;;;;8.23;5.72;;;;;;;2.89;83.02;94859.56;5012251;28;20038;-70
2021/03/15 05:54:45;;;;;;;8.18;6.00;;;;;;;3.12;83.30;94856.44;5011697;28;20038;-72
2021/03/15 05:57:35;;;;;;;5.90;5.28;;;;;;;2.93;81.32;94809.94;5011740;28;20046;-72
2021/03/15 06:00:31;;;;;;;5.82;5.32;;;;;;;3.29;81.50;94858.00;5011530;28;20509;-72
2021/03/15 06:03:09;;;;;;;6.97;4.90;;;;;;;3.06;82.02;94854.06;5011420;28;20125;-72
2021/03/15 06:05:43;;;;;;;6.28;4.63;;;;;;;3.43;81.55;94851.16;5011658;28;20065;-73
2021/03/15 06:08:20;;;;;;;7.18;5.45;;;;;;;3.31;81.02;94842.75;5009595;28;20038;-70
2021/03/15 06:11:04;;;;;;;8.00;5.35;;;;;;;3.31;80.69;94853.25;5011227;28;20119;-72
2021/03/15 06:13:33;;;;;;;6.63;5.00;;;;;;;3.69;81.47;94840.59;5011013;28;20026;-71
2021/03/15 06:16:01;;;;;;;5.40;4.90;;;;;;;3.79;80.29;94845.81;5013328;28;20033;-72
2021/03/15 06:18:27;;;;;;;4.82;4.43;;;;;;;3.90;80.63;94832.34;5010863;28;20045;-71
2021/03/15 06:20:53;;;;;;;4.82;4.38;;;;;;;4.04;80.02;94827.28;5011308;28;20038;-70
2021/03/15 06:23:19;;;;;;;5.18;4.28;;;;;;;3.89;79.23;94836.03;5011558;28;20034;-68
2021/03/15 06:25:47;;;;;;;6.88;4.57;;;;;;;4.16;78.63;94838.28;5008187;28;20198;-71
2021/03/15 06:28:13;;;;;;;4.28;3.85;;;;;;;4.36;78.21;94828.72;4993212;28;20105;-72
2021/03/15 06:30:39;;;;;;;5.75;4.30;;;;;;;4.53;78.81;94828.34;5009420;28;20124;-71
2021/03/15 06:33:05;;;;;;;5.28;4.15;;;;;;;4.81;79.03;94832.91;5010001;28;20038;-71
2021/03/15 06:35:41;;;;;;;5.60;4.35;;;;;;;4.96;78.21;94826.72;5010829;28;20029;-72
2021/03/15 06:38:08;;;;;;;4.95;4.00;;;;;;;5.05;76.36;94826.91;5010812;28;20124;-71
2021/03/15 06:40:35;;;;;;;8.43;4.07;;;;;;;5.26;77.09;94825.69;5010578;28;20478;-70
2021/03/15 06:43:02;;;;;;;3.75;2.80;;;;;;;5.30;73.96;94818.00;5012778;28;20578;-70
2021/03/15 06:45:28;;;;;;;3.78;3.47;;;;;;;5.57;75.63;94822.75;5011109;28;20042;-71
2021/03/15 06:47:54;;;;;;;3.85;2.70;;;;;;;5.70;74.89;94820.25;5010483;28;20046;-72
2021/03/15 06:50:20;;;;;;;3.88;2.70;;;;;;;5.88;75.92;94808.16;5011538;28;20115;-75
2021/03/15 06:52:52;;;;;;;2.95;2.38;;;;;;;6.04;74.04;94824.66;5011091;28;20041;-72
2021/03/15 06:55:22;;;;;;;3.33;2.40;;;;;;;5.89;70.69;94817.66;5015154;28;20049;-72
2021/03/15 06:57:47;;;;;;;6.80;3.20;;;;;;;5.95;72.22;94816.56;5010937;28;20084;-83
2021/03/15 07:00:13;;;;;;;4.55;2.75;;;;;;;6.06;72.00;94829.66;5011711;28;20038;-69
2021/03/15 07:02:40;;;;;;;2.50;2.30;;;;;;;5.63;69.79;94813.72;5010376;28;20053;-68
2021/03/15 07:05:14;;;;;;;3.10;2.80;;;;;;;5.89;71.85;94824.81;5019671;23;20507;-66
2021/03/15 07:07:48;;;;;;;2.88;2.30;;;;;;;5.42;70.48;94828.97;4991123;28;20031;-65
2021/03/15 07:10:18;;;;;;;4.68;2.40;;;;;;;5.96;71.61;94825.28;4993028;28;20396;-66
2021/03/15 07:12:44;;;;;;;3.00;2.30;;;;;;;5.87;71.96;94780.19;5009829;28;20492;-67
2021/03/15 07:15:10;;;;;;;2.88;2.40;;;;;;;6.16;71.00;94813.69;5009794;28;20052;-68
2021/03/15 07:17:36;;;;;;;4.00;2.20;;;;;;;5.21;70.24;94662.25;5010293;28;20036;-69
2021/03/15 07:20:04;;;;;;;4.82;2.53;;;;;;;4.81;71.36;94795.22;5006954;28;20211;-67
2021/03/15 07:22:29;;;;;;;4.30;2.70;;;;;;;4.74;71.74;94765.78;5007048;28;20113;-67
2021/03/15 07:25:08;;;;;;;4.00;2.42;;;;;;;5.46;70.50;94828.13;5011813;28;20032;-67
2021/03/15 07:27:35;;;;;;;3.80;2.70;;;;;;;5.14;70.68;94812.09;5009589;28;20049;-67
2021/03/15 07:30:26;;;;;;;4.60;2.53;;;;;;;5.10;71.98;94827.66;5009847;28;20057;-68
2021/03/15 07:32:51;;;;;;;3.10;2.20;;;;;;;4.92;72.47;94799.38;5009640;28;20057;-69
2021/03/15 07:35:25;;;;;;;4.57;2.40;;;;;;;5.08;72.72;94835.06;5008076;28;20038;-69
2021/03/15 07:37:51;;;;;;;3.63;2.33;;;;;;;4.24;74.01;94822.97;5009061;28;20096;-68
2021/03/15 07:40:37;;;;;;;4.55;2.38;;;;;;;4.54;74.81;94830.69;5011354;28;20476;-67
2021/03/15 07:43:14;;;;;;;4.47;2.05;;;;;;;4.79;74.49;94826.34;5009562;28;20069;-68
2021/03/15 07:45:41;;;;;;;5.05;2.05;;;;;;;5.01;74.11;94821.41;5009416;28;20052;-68
2021/03/15 07:48:19;;;;;;;2.10;1.80;;;;;;;4.97;72.06;94807.22;5007747;28;20037;-68
2021/03/15 07:51:00;;;;;;;2.08;1.70;;;;;;;4.89;72.47;94790.16;5009338;28;20117;-67
2021/03/15 07:53:39;;;;;;;2.85;1.73;;;;;;;4.80;71.41;94770.72;5009114;28;20518;-67
2021/03/15 07:56:06;;;;;;;4.28;1.73;;;;;;;5.25;71.19;94787.19;5009286;28;20111;-68
2021/03/15 07:58:37;;;;;;;2.53;1.58;;;;;;;5.15;70.30;94798.63;5008885;28;20568;-69
2021/03/15 08:01:04;;;;;;;4.15;1.88;;;;;;;5.25;70.53;94766.09;5011164;28;20468;-67
2021/03/15 08:03:30;;;;;;;1.83;1.50;;;;;;;5.33;71.94;94812.97;5008732;28;20522;-68
2021/03/15 08:05:58;;;;;;;4.03;1.85;;;;;;;5.03;72.52;94766.59;5008842;28;20038;-68
2021/03/15 08:08:23;;;;;;;3.95;2.13;;;;;;;5.51;71.46;94766.63;5007682;28;20030;-68
2021/03/15 08:10:50;;;;;;;3.45;1.63;;;;;;;5.89;70.89;94785.22;5008037;28;20030;-69
2021/03/15 08:13:19;;;;;;;4.10;1.80;;;;;;;5.93;70.85;94796.78;5010913;28;20424;-68
2021/03/15 08:15:59;;;;;;;6.22;2.33;;;;;;;6.31;71.80;94750.09;5009136;28;20450;-67
2021/03/15 08:18:29;;;;;;;1.98;1.63;;;;;;;6.91;70.10;94789.88;5008892;28;20440;-68
2021/03/15 08:21:12;;;;;;;1.95;1.50;;;;;;;6.45;70.76;94727.16;5009149;28;20096;-67
2021/03/15 08:23:42;;;;;;;2.65;1.45;;;;;;;6.99;69.32;94764.63;5007596;28;20087;-68
2021/03/15 08:26:09;;;;;;;3.15;1.70;;;;;;;7.39;69.05;94746.50;5008946;28;20400;-71
2021/03/15 08:28:37;;;;;;;2.67;1.65;;;;;;;7.48;67.22;94711.13;5008423;28;20037;-68
2021/03/15 08:31:15;;;;;;;7.13;2.33;;;;;;;8.51;68.35;94768.09;5011010;28;20088;-67
2021/03/15 08:33:42;;;;;;;4.15;1.70;;;;;;;8.15;65.66;94730.97;5008865;28;20046;-68
2021/03/15 08:36:08;;;;;;;2.45;1.60;;;;;;;7.68;64.10;94764.75;5008721;28;20120;-67
2021/03/15 08:38:35;;;;;;;2.92;1.70;;;;;;;8.07;65.93;94743.03;5007323;28;20486;-69
2021/03/15 08:41:10;;;;;;;2.33;1.83;;;;;;;8.40;65.61;94756.16;5008948;28;20064;-70
2021/03/15 08:43:41;;;;;;;1.70;1.40;;;;;;;8.45;63.30;94740.91;5007353;28;20463;-69
2021/03/15 08:46:11;;;;;;;2.78;1.48;;;;;;;7.49;64.59;94715.31;5010797;28;20699;-69
2021/03/15 08:48:39;;;;;;;1.60;1.50;;;;;;;8.51;65.00;94742.34;5008938;28;20046;-69
2021/03/15 08:51:11;;;;;;;1.55;1.20;;;;;;;8.47;64.01;94751.22;5009285;28;20159;-70
2021/03/15 08:53:37;;;;;;;2.63;1.60;;;;;;;8.25;63.11;94752.72;5009490;28;20034;-69
2021/03/15 08:56:04;;;;;;;2.10;1.30;;;;;;;8.47;65.00;94722.06;5012612;28;20080;-70
2021/03/15 08:58:36;;;;;;;1.95;1.48;;;;;;;8.98;62.96;94736.75;5013640;28;20088;-70
2021/03/15 09:01:06;;;;;;;1.35;1.25;;;;;;;8.08;64.31;94708.28;5015729;28;20439;-69
2021/03/15 09:03:52;;;;;;;1.73;1.27;;;;;;;8.81;61.78;94732.13;5012062;28;20111;-69
2021/03/15 09:06:29;;;;;;;1.35;1.25;;;;;;;8.17;62.72;94728.78;5013668;28;20061;-69
2021/03/15 09:08:57;;;;;;;1.80;1.30;;;;;;;6.91;65.37;94672.75;5011787;28;20388;-69
2021/03/15 09:11:35;;;;;;;1.20;1.10;;;;;;;8.14;64.80;94718.78;5013308;28;20038;-69
2021/03/15 09:14:15;;;;;;;2.22;1.17;;;;;;;8.28;63.17;94724.81;5013655;28;20052;-71
2021/03/15 09:17:08;;;;;;;2.40;1.30;;;;;;;8.22;63.09;94699.53;5012027;28;20507;-69
2021/03/15 09:19:39;;;;;;;;;;;;;;;7.56;63.95;94720.22;4993482;28;20038;-67
2021/03/15 09:22:18;;;;;;;1.70;1.10;;;;;;;7.55;63.63;94705.44;5014822;28;20263;-68
2021/03/15 09:24:51;;;;;;;1.17;0.90;;;;;;;7.53;64.60;94704.94;5013080;28;20045;-69
2021/03/15 09:27:19;;;;;;;1.33;1.10;;;;;;;7.01;64.09;94713.03;5012925;28;20503;-67
2021/03/15 09:29:52;;;;;;;4.00;1.27;;;;;;;6.54;66.97;94695.56;5013101;28;20046;-68
2021/03/15 09:32:18;;;;;;;1.33;1.13;;;;;;;7.09;66.02;94677.19;5012832;28;20479;-67
2021/03/15 09:34:43;;;;;;;1.58;1.13;;;;;;;7.14;64.92;94655.94;5013049;28;20092;-67
2021/03/15 09:37:10;;;;;;;1.30;1.20;;;;;;;6.48;67.90;94680.88;5014837;28;20056;-66
2021/03/15 09:39:36;;;;;;;1.38;1.20;;;;;;;7.04;67.20;94677.28;5012928;28;20034;-69
2021/03/15 09:42:02;;;;;;;1.48;1.17;;;;;;;6.24;67.14;94622.88;5009338;28;20138;-68
2021/03/15 09:44:30;;;;;;;1.20;1.10;;;;;;;6.48;68.50;94665.03;5012659;28;20399;-70
2021/03/15 09:46:56;;;;;;;2.58;1.13;;;;;;;6.96;66.66;94638.28;5011767;28;20113;-72
2021/03/15 09:49:36;;;;;;;2.15;1.08;;;;;;;5.53;67.17;94545.56;5013259;28;20022;-71
2021/03/15 09:52:16;;;;;;;0.80;0.80;;;;;;;6.05;66.72;94662.53;5012367;28;20042;-70
2021/03/15 09:54:43;;;;;;;1.42;0.90;;;;;;;5.99;67.88;94606.38;5012392;28;20042;-70
2021/03/15 09:57:10;;;;;;;1.58;1.05;;;;;;;5.79;70.37;94741.25;5012282;28;20452;-68
2021/03/15 09:59:35;;;;;;;1.65;0.98;;;;;;;6.64;68.40;94674.25;5027584;28;20040;-68
2021/03/15 10:02:01;;;;;;;0.73;0.73;;;;;;;5.22;69.42;94556.53;5011024;28;20443;-69
2021/03/15 10:04:34;;;;;;;2.05;0.80;;;;;;;4.21;70.75;94578.72;5011941;28;20089;-70
2021/03/15 10:07:02;;;;;;;1.40;0.70;;;;;;;4.90;72.16;94645.97;5012864;28;20033;-70
2021/03/15 10:09:30;;;;;;;1.50;0.82;;;;;;;3.40;76.49;94554.59;5012367;28;20120;-68
2021/03/15 10:11:56;;;;;;;1.30;0.70;;;;;;;4.36;76.43;94610.16;5012157;28;20033;-70
2021/03/15 10:14:24;;;;;;;1.90;0.93;;;;;;;4.65;76.57;94695.22;5012386;28;20392;-69
2021/03/15 10:17:03;;;;;;;3.78;0.90;;;;;;;3.68;76.75;94534.66;5012199;28;20038;-67
2021/03/15 10:19:31;;;;;;;0.60;0.60;;;;;;;5.43;74.42;94691.53;5012310;28;20057;-68
2021/03/15 10:22:14;;;;;;;0.63;0.63;;;;;;;5.51;73.46;94695.41;5013906;28;20026;-67
2021/03/15 10:24:40;;;;;;;1.30;1.20;;;;;;;5.58;73.99;94677.38;5012270;28;20041;-69
2021/03/15 10:27:17;;;;;;;0.70;0.63;;;;;;;5.76;72.84;94678.47;5011946;28;20115;-68
2021/03/15 10:29:49;;;;;;;0.98;0.60;;;;;;;6.03;71.81;94666.50;5012217;28;20037;-69
2021/03/15 10:32:14;;;;;;;2.20;0.70;;;;;;;6.31;70.07;94648.94;5011941;28;20373;-70
2021/03/15 10:34:40;;;;;;;0.95;0.73;;;;;;;7.53;68.28;94646.72;5012073;28;20088;-72
2021/03/15 10:37:06;;;;;;;1.80;1.20;;;;;;;6.86;67.50;94617.31;5012392;28;20018;-70
2021/03/15 10:39:32;;;;;;;0.75;0.60;;;;;;;5.15;68.00;94502.56;5011559;28;20092;-69
2021/03/15 10:41:57;;;;;;;1.23;0.75;;;;;;;7.03;68.45;94665.13;5011827;28;20487;-69
2021/03/15 10:44:24;;;;;;;1.27;0.82;;;;;;;7.12;66.20;94668.69;5012138;28;20046;-66
2021/03/15 10:46:55;;;;;;;0.80;0.70;;;;;;;6.71;66.48;94632.41;5011626;28;20511;-68
2021/03/15 10:49:24;;;;;;;0.60;0.57;;;;;;;6.16;69.18;94657.88;5013502;28;20468;-67
2021/03/15 10:51:51;;;;;;;0.60;0.60;;;;;;;5.92;71.16;94634.97;5011305;28;20034;-71
2021/03/15 10:54:34;;;;;;;0.80;0.73;;;;;;;5.38;73.76;94665.22;5010528;28;20030;-67
2021/03/15 10:57:17;;;;;;;0.43;0.43;;;;;;;4.64;77.47;94672.59;5011423;28;20041;-60
2021/03/15 10:59:44;;;;;;;1.27;0.50;;;;;;;4.22;81.03;94667.16;5011699;28;20610;-69
2021/03/15 11:02:18;;;;;;;0.50;0.50;;;;;;;4.60;80.66;94655.75;5011184;28;20121;-70
2021/03/15 11:04:43;;;;;;;0.50;0.50;;;;;;;3.78;82.68;94641.66;5009843;28;20037;-65
2021/03/15 11:07:22;;;;;;;2.08;0.70;;;;;;;4.29;81.56;94672.88;5011792;28;20022;-66
2021/03/15 11:10:06;;;;;;;1.23;0.60;;;;;;;4.49;82.25;94664.81;5011453;28;20045;-69
2021/03/15 11:12:33;;;;;;;0.88;0.77;;;;;;;4.61;79.70;94670.50;5011199;28;20073;-68
2021/03/15 11:15:06;;;;;;;0.63;0.63;;;;;;;3.97;82.79;94666.25;5011186;28;20388;-69
2021/03/15 11:17:31;;;;;;;0.68;0.68;;;;;;;3.47;82.77;94562.16;5010539;28;20042;-68
2021/03/15 11:19:56;;;;;;;1.65;0.70;;;;;;;4.25;81.80;94661.31;5008914;28;20718;-69
2021/03/15 11:22:22;;;;;;;0.80;0.80;;;;;;;4.96;80.49;94629.03;5011586;28;20022;-67
2021/03/15 11:24:47;;;;;;;0.50;0.50;;;;;;;4.67;80.89;94660.72;5010932;28;20095;-67
2021/03/15 11:27:14;;;;;;;1.02;0.90;;;;;;;4.80;78.99;94627.66;5010502;28;20041;-68
2021/03/15 11:29:42;;;;;;;0.60;0.60;;;;;;;5.17;78.54;94658.63;5011055;28;20117;-67
2021/03/15 11:32:10;;;;;;;2.13;0.63;;;;;;;4.30;79.92;94654.19;5009650;28;20045;-67
2021/03/15 11:34:45;;;;;;;1.20;0.57;;;;;;;4.83;78.94;94629.72;5010925;28;20026;-68
2021/03/15 11:37:11;;;;;;;0.60;0.60;;;;;;;4.97;78.13;94608.78;5011137;28;20049;-66
2021/03/15 11:39:44;;;;;;;0.52;0.52;;;;;;;4.39;79.58;94630.66;5010545;28;20115;-67
2021/03/15 11:42:32;;;;;;;1.58;0.70;;;;;;;4.20;82.92;94645.56;5010484;28;20042;-66
2021/03/15 11:44:58;;;;;;;0.73;0.60;;;;;;;4.54;82.14;94640.28;5010777;28;20088;-67
2021/03/15 11:47:24;;;;;;;0.95;0.55;;;;;;;4.93;80.66;94614.59;5010261;28;20513;-66
2021/03/15 11:49:49;;;;;;;0.60;0.60;;;;;;;4.95;79.89;94619.56;5010231;28;20034;-68
2021/03/15 11:52:26;;;;;;;2.65;0.68;;;;;;;5.35;78.51;94617.53;5012289;28;20026;-69